Kissimmee, Florida
Current Conditions -  °F | °C
As of 9:47 PM on Thursday 27 Nov 2014 (Local Time) from KISM Reporting Station
Clear Clear  
Wind Chill: 55°   Ceiling: Unl
Heat Index: 55°   Visibility: 10mi
Dew Point: 36°   Wind: 12mph
Humidity: 47%   Direction: 350°N
Pressure: 30.28"   Gusts: NA
Location:  28.29°N, 81.41°W
Report Text: KISM 280247Z 35010KT 10SM SKC 13/02 A3028
Loading
Personal Weather Stations






























Interactive Weather Map New forecast layout! Learn more

10-Day Weather Forecast

Advertisements
Track Severe Weather on mobile